sensor_id;sensor_type;location;lat;lon;timestamp;P1;durP1;ratioP1;P2;durP2;ratioP2
7487;SDS011;3785;52.260;4.728;2022-07-29T00:00:33;2.15;;;0.80;;
7487;SDS011;3785;52.260;4.728;2022-07-29T00:03:54;1.52;;;0.85;;
7487;SDS011;3785;52.260;4.728;2022-07-29T00:07:14;1.30;;;0.60;;
7487;SDS011;3785;52.260;4.728;2022-07-29T00:10:35;0.90;;;0.60;;
7487;SDS011;3785;52.260;4.728;2022-07-29T00:13:55;1.08;;;0.60;;
7487;SDS011;3785;52.260;4.728;2022-07-29T00:17:16;1.95;;;0.68;;
7487;SDS011;3785;52.260;4.728;2022-07-29T00:20:36;1.98;;;0.77;;
7487;SDS011;3785;52.260;4.728;2022-07-29T00:23:57;1.10;;;0.60;;
7487;SDS011;3785;52.260;4.728;2022-07-29T00:27:18;1.20;;;0.60;;
7487;SDS011;3785;52.260;4.728;2022-07-29T00:30:38;1.45;;;0.60;;
7487;SDS011;3785;52.260;4.728;2022-07-29T00:33:59;1.13;;;0.50;;
7487;SDS011;3785;52.260;4.728;2022-07-29T00:37:20;0.88;;;0.60;;
7487;SDS011;3785;52.260;4.728;2022-07-29T00:40:41;0.98;;;0.65;;
7487;SDS011;3785;52.260;4.728;2022-07-29T00:44:02;0.85;;;0.45;;
7487;SDS011;3785;52.260;4.728;2022-07-29T00:47:22;0.68;;;0.50;;
7487;SDS011;3785;52.260;4.728;2022-07-29T00:50:43;0.63;;;0.47;;
7487;SDS011;3785;52.260;4.728;2022-07-29T00:54:04;0.88;;;0.47;;
7487;SDS011;3785;52.260;4.728;2022-07-29T00:57:25;2.97;;;0.77;;
7487;SDS011;3785;52.260;4.728;2022-07-29T01:00:45;1.13;;;0.60;;
7487;SDS011;3785;52.260;4.728;2022-07-29T01:04:06;1.40;;;0.47;;
7487;SDS011;3785;52.260;4.728;2022-07-29T01:07:26;1.48;;;0.80;;
7487;SDS011;3785;52.260;4.728;2022-07-29T01:10:47;0.70;;;0.50;;
7487;SDS011;3785;52.260;4.728;2022-07-29T01:14:08;1.02;;;0.50;;
7487;SDS011;3785;52.260;4.728;2022-07-29T01:21:53;0.98;;;0.60;;
7487;SDS011;3785;52.260;4.728;2022-07-29T01:29:05;2.13;;;0.50;;
7487;SDS011;3785;52.260;4.728;2022-07-29T01:32:29;1.15;;;0.55;;
7487;SDS011;3785;52.260;4.728;2022-07-29T01:35:53;1.38;;;0.70;;
7487;SDS011;3785;52.260;4.728;2022-07-29T01:39:18;0.88;;;0.55;;
7487;SDS011;3785;52.260;4.728;2022-07-29T01:42:43;1.05;;;0.70;;
7487;SDS011;3785;52.260;4.728;2022-07-29T01:46:06;0.77;;;0.57;;
7487;SDS011;3785;52.260;4.728;2022-07-29T01:49:30;0.65;;;0.50;;
7487;SDS011;3785;52.260;4.728;2022-07-29T01:52:54;1.38;;;0.60;;
7487;SDS011;3785;52.260;4.728;2022-07-29T01:56:17;1.25;;;0.60;;
7487;SDS011;3785;52.260;4.728;2022-07-29T01:59:39;0.98;;;0.60;;
7487;SDS011;3785;52.260;4.728;2022-07-29T02:03:02;1.58;;;0.60;;
7487;SDS011;3785;52.260;4.728;2022-07-29T02:06:25;1.17;;;0.60;;
7487;SDS011;3785;52.260;4.728;2022-07-29T02:09:47;2.42;;;0.70;;
7487;SDS011;3785;52.260;4.728;2022-07-29T02:13:10;1.15;;;0.65;;
7487;SDS011;3785;52.260;4.728;2022-07-29T02:16:31;0.70;;;0.60;;
7487;SDS011;3785;52.260;4.728;2022-07-29T02:19:57;1.77;;;0.60;;
7487;SDS011;3785;52.260;4.728;2022-07-29T02:23:21;2.45;;;1.08;;
7487;SDS011;3785;52.260;4.728;2022-07-29T02:26:43;1.75;;;0.70;;
7487;SDS011;3785;52.260;4.728;2022-07-29T02:30:04;4.10;;;0.70;;
7487;SDS011;3785;52.260;4.728;2022-07-29T02:33:26;1.20;;;0.70;;
7487;SDS011;3785;52.260;4.728;2022-07-29T02:36:47;1.42;;;0.90;;
7487;SDS011;3785;52.260;4.728;2022-07-29T02:40:09;2.15;;;0.90;;
7487;SDS011;3785;52.260;4.728;2022-07-29T02:43:31;2.47;;;0.88;;
7487;SDS011;3785;52.260;4.728;2022-07-29T02:46:54;2.17;;;0.80;;
7487;SDS011;3785;52.260;4.728;2022-07-29T02:50:38;1.38;;;0.85;;
7487;SDS011;3785;52.260;4.728;2022-07-29T02:54:05;1.48;;;0.90;;
7487;SDS011;3785;52.260;4.728;2022-07-29T03:00:50;1.48;;;0.80;;
7487;SDS011;3785;52.260;4.728;2022-07-29T03:04:11;1.48;;;0.90;;
7487;SDS011;3785;52.260;4.728;2022-07-29T03:07:33;1.85;;;0.80;;
7487;SDS011;3785;52.260;4.728;2022-07-29T03:10:55;1.50;;;0.90;;
7487;SDS011;3785;52.260;4.728;2022-07-29T03:14:19;2.47;;;1.08;;
7487;SDS011;3785;52.260;4.728;2022-07-29T03:17:40;2.72;;;1.00;;
7487;SDS011;3785;52.260;4.728;2022-07-29T03:21:00;2.10;;;1.05;;
7487;SDS011;3785;52.260;4.728;2022-07-29T03:24:39;1.45;;;0.90;;
7487;SDS011;3785;52.260;4.728;2022-07-29T03:28:00;1.20;;;0.85;;
7487;SDS011;3785;52.260;4.728;2022-07-29T03:31:21;1.55;;;0.93;;
7487;SDS011;3785;52.260;4.728;2022-07-29T03:34:41;1.10;;;0.70;;
7487;SDS011;3785;52.260;4.728;2022-07-29T03:38:02;1.80;;;0.90;;
7487;SDS011;3785;52.260;4.728;2022-07-29T03:41:22;1.60;;;0.88;;
7487;SDS011;3785;52.260;4.728;2022-07-29T03:44:44;1.83;;;0.75;;
7487;SDS011;3785;52.260;4.728;2022-07-29T03:48:07;2.42;;;0.90;;
7487;SDS011;3785;52.260;4.728;2022-07-29T03:51:29;2.55;;;1.17;;
7487;SDS011;3785;52.260;4.728;2022-07-29T03:54:51;1.60;;;0.82;;
7487;SDS011;3785;52.260;4.728;2022-07-29T03:58:12;1.58;;;0.80;;
7487;SDS011;3785;52.260;4.728;2022-07-29T04:01:34;1.17;;;0.82;;
7487;SDS011;3785;52.260;4.728;2022-07-29T04:04:55;1.98;;;0.82;;
7487;SDS011;3785;52.260;4.728;2022-07-29T04:08:15;2.28;;;1.10;;
7487;SDS011;3785;52.260;4.728;2022-07-29T04:11:39;1.25;;;0.90;;
7487;SDS011;3785;52.260;4.728;2022-07-29T04:15:01;2.13;;;0.85;;
7487;SDS011;3785;52.260;4.728;2022-07-29T04:18:23;1.00;;;0.75;;
7487;SDS011;3785;52.260;4.728;2022-07-29T04:21:43;1.20;;;0.65;;
7487;SDS011;3785;52.260;4.728;2022-07-29T04:25:05;1.70;;;0.82;;
7487;SDS011;3785;52.260;4.728;2022-07-29T04:28:26;0.90;;;0.60;;
7487;SDS011;3785;52.260;4.728;2022-07-29T04:31:46;1.10;;;0.70;;
7487;SDS011;3785;52.260;4.728;2022-07-29T04:35:07;1.20;;;0.73;;
7487;SDS011;3785;52.260;4.728;2022-07-29T04:38:28;1.30;;;0.80;;
7487;SDS011;3785;52.260;4.728;2022-07-29T04:41:49;1.55;;;0.80;;
7487;SDS011;3785;52.260;4.728;2022-07-29T04:45:10;3.17;;;1.17;;
7487;SDS011;3785;52.260;4.728;2022-07-29T04:48:30;1.00;;;0.70;;
7487;SDS011;3785;52.260;4.728;2022-07-29T04:51:51;1.65;;;0.90;;
7487;SDS011;3785;52.260;4.728;2022-07-29T04:55:11;1.27;;;0.93;;
7487;SDS011;3785;52.260;4.728;2022-07-29T04:58:35;2.15;;;0.90;;
7487;SDS011;3785;52.260;4.728;2022-07-29T05:01:56;1.23;;;0.80;;
7487;SDS011;3785;52.260;4.728;2022-07-29T05:05:16;1.90;;;0.85;;
7487;SDS011;3785;52.260;4.728;2022-07-29T05:08:37;1.50;;;0.90;;
7487;SDS011;3785;52.260;4.728;2022-07-29T05:11:57;1.30;;;0.70;;
7487;SDS011;3785;52.260;4.728;2022-07-29T05:15:18;2.00;;;1.00;;
7487;SDS011;3785;52.260;4.728;2022-07-29T05:18:39;1.30;;;0.90;;
7487;SDS011;3785;52.260;4.728;2022-07-29T05:22:00;1.42;;;0.80;;
7487;SDS011;3785;52.260;4.728;2022-07-29T05:25:21;1.10;;;0.75;;
7487;SDS011;3785;52.260;4.728;2022-07-29T05:28:42;2.00;;;0.80;;
7487;SDS011;3785;52.260;4.728;2022-07-29T05:32:02;1.60;;;1.00;;
7487;SDS011;3785;52.260;4.728;2022-07-29T05:35:23;2.30;;;1.05;;
7487;SDS011;3785;52.260;4.728;2022-07-29T05:38:44;2.28;;;1.08;;
7487;SDS011;3785;52.260;4.728;2022-07-29T05:42:11;1.48;;;0.88;;
7487;SDS011;3785;52.260;4.728;2022-07-29T05:45:31;1.58;;;0.82;;
7487;SDS011;3785;52.260;4.728;2022-07-29T05:48:53;1.52;;;0.70;;
7487;SDS011;3785;52.260;4.728;2022-07-29T05:52:14;1.20;;;0.80;;
7487;SDS011;3785;52.260;4.728;2022-07-29T05:55:35;1.63;;;1.00;;
7487;SDS011;3785;52.260;4.728;2022-07-29T05:58:55;3.13;;;1.17;;
7487;SDS011;3785;52.260;4.728;2022-07-29T06:02:16;1.25;;;0.85;;
7487;SDS011;3785;52.260;4.728;2022-07-29T06:05:37;2.55;;;0.80;;
7487;SDS011;3785;52.260;4.728;2022-07-29T06:08:57;2.53;;;0.80;;
7487;SDS011;3785;52.260;4.728;2022-07-29T06:12:18;1.45;;;0.90;;
7487;SDS011;3785;52.260;4.728;2022-07-29T06:15:39;1.50;;;1.00;;
7487;SDS011;3785;52.260;4.728;2022-07-29T06:19:00;1.65;;;0.98;;
7487;SDS011;3785;52.260;4.728;2022-07-29T06:22:20;1.65;;;0.90;;
7487;SDS011;3785;52.260;4.728;2022-07-29T06:25:41;2.05;;;0.80;;
7487;SDS011;3785;52.260;4.728;2022-07-29T06:29:01;2.28;;;1.05;;
7487;SDS011;3785;52.260;4.728;2022-07-29T06:32:22;1.75;;;0.88;;
7487;SDS011;3785;52.260;4.728;2022-07-29T06:35:42;2.00;;;0.73;;
7487;SDS011;3785;52.260;4.728;2022-07-29T06:39:06;1.55;;;0.90;;
7487;SDS011;3785;52.260;4.728;2022-07-29T06:42:27;2.22;;;0.90;;
7487;SDS011;3785;52.260;4.728;2022-07-29T06:45:47;1.55;;;0.77;;
7487;SDS011;3785;52.260;4.728;2022-07-29T06:49:08;1.65;;;1.00;;
7487;SDS011;3785;52.260;4.728;2022-07-29T06:52:29;1.17;;;0.55;;
7487;SDS011;3785;52.260;4.728;2022-07-29T06:55:50;3.47;;;1.05;;
7487;SDS011;3785;52.260;4.728;2022-07-29T06:59:11;1.77;;;0.93;;
7487;SDS011;3785;52.260;4.728;2022-07-29T07:02:32;3.08;;;0.93;;
7487;SDS011;3785;52.260;4.728;2022-07-29T07:05:53;1.52;;;0.85;;
7487;SDS011;3785;52.260;4.728;2022-07-29T07:09:14;1.70;;;0.85;;
7487;SDS011;3785;52.260;4.728;2022-07-29T07:12:35;3.47;;;1.23;;
7487;SDS011;3785;52.260;4.728;2022-07-29T07:15:55;1.77;;;1.23;;
7487;SDS011;3785;52.260;4.728;2022-07-29T07:19:16;1.63;;;0.95;;
7487;SDS011;3785;52.260;4.728;2022-07-29T07:22:38;1.50;;;0.90;;
7487;SDS011;3785;52.260;4.728;2022-07-29T07:25:58;1.83;;;1.08;;
7487;SDS011;3785;52.260;4.728;2022-07-29T07:29:19;2.35;;;1.00;;
7487;SDS011;3785;52.260;4.728;2022-07-29T07:32:39;3.58;;;0.95;;
7487;SDS011;3785;52.260;4.728;2022-07-29T07:36:00;2.05;;;1.00;;
7487;SDS011;3785;52.260;4.728;2022-07-29T07:39:20;1.98;;;1.10;;
7487;SDS011;3785;52.260;4.728;2022-07-29T07:42:41;1.95;;;1.00;;
7487;SDS011;3785;52.260;4.728;2022-07-29T07:46:02;1.52;;;1.00;;
7487;SDS011;3785;52.260;4.728;2022-07-29T07:49:22;2.50;;;1.10;;
7487;SDS011;3785;52.260;4.728;2022-07-29T07:52:47;2.40;;;1.13;;
7487;SDS011;3785;52.260;4.728;2022-07-29T07:56:09;3.83;;;0.95;;
7487;SDS011;3785;52.260;4.728;2022-07-29T07:59:30;2.58;;;0.95;;
7487;SDS011;3785;52.260;4.728;2022-07-29T08:02:50;1.63;;;1.02;;
7487;SDS011;3785;52.260;4.728;2022-07-29T08:06:11;2.08;;;1.00;;
7487;SDS011;3785;52.260;4.728;2022-07-29T08:09:31;2.70;;;1.05;;
7487;SDS011;3785;52.260;4.728;2022-07-29T08:12:53;3.47;;;0.98;;
7487;SDS011;3785;52.260;4.728;2022-07-29T08:16:13;2.28;;;1.10;;
7487;SDS011;3785;52.260;4.728;2022-07-29T08:19:35;1.73;;;1.02;;
7487;SDS011;3785;52.260;4.728;2022-07-29T08:22:56;2.85;;;1.05;;
7487;SDS011;3785;52.260;4.728;2022-07-29T08:26:17;2.13;;;1.05;;
7487;SDS011;3785;52.260;4.728;2022-07-29T08:29:37;2.55;;;1.23;;
7487;SDS011;3785;52.260;4.728;2022-07-29T08:32:58;2.20;;;1.27;;
7487;SDS011;3785;52.260;4.728;2022-07-29T08:36:19;1.40;;;1.00;;
7487;SDS011;3785;52.260;4.728;2022-07-29T08:39:40;2.45;;;1.20;;
7487;SDS011;3785;52.260;4.728;2022-07-29T08:43:07;1.83;;;0.90;;
7487;SDS011;3785;52.260;4.728;2022-07-29T08:46:28;2.22;;;1.05;;
7487;SDS011;3785;52.260;4.728;2022-07-29T08:49:49;1.77;;;1.17;;
7487;SDS011;3785;52.260;4.728;2022-07-29T08:53:14;2.88;;;1.10;;
7487;SDS011;3785;52.260;4.728;2022-07-29T08:56:35;3.58;;;1.10;;
7487;SDS011;3785;52.260;4.728;2022-07-29T08:59:56;1.83;;;1.10;;
7487;SDS011;3785;52.260;4.728;2022-07-29T09:03:20;2.08;;;0.90;;
7487;SDS011;3785;52.260;4.728;2022-07-29T09:06:46;1.85;;;1.20;;
7487;SDS011;3785;52.260;4.728;2022-07-29T09:10:08;1.52;;;1.00;;
7487;SDS011;3785;52.260;4.728;2022-07-29T09:13:29;1.88;;;0.90;;
7487;SDS011;3785;52.260;4.728;2022-07-29T09:16:54;2.53;;;1.10;;
7487;SDS011;3785;52.260;4.728;2022-07-29T09:20:20;2.15;;;0.88;;
7487;SDS011;3785;52.260;4.728;2022-07-29T09:27:30;1.95;;;0.90;;
7487;SDS011;3785;52.260;4.728;2022-07-29T09:30:51;2.40;;;1.10;;
7487;SDS011;3785;52.260;4.728;2022-07-29T09:34:13;2.30;;;1.33;;
7487;SDS011;3785;52.260;4.728;2022-07-29T09:37:35;2.78;;;0.98;;
7487;SDS011;3785;52.260;4.728;2022-07-29T09:40:56;1.83;;;1.23;;
7487;SDS011;3785;52.260;4.728;2022-07-29T09:44:18;1.73;;;1.17;;
7487;SDS011;3785;52.260;4.728;2022-07-29T09:47:43;2.80;;;1.05;;
7487;SDS011;3785;52.260;4.728;2022-07-29T09:51:18;1.88;;;1.00;;
7487;SDS011;3785;52.260;4.728;2022-07-29T09:54:39;1.33;;;0.90;;
7487;SDS011;3785;52.260;4.728;2022-07-29T09:58:16;2.30;;;1.05;;
7487;SDS011;3785;52.260;4.728;2022-07-29T10:01:37;3.78;;;1.10;;
7487;SDS011;3785;52.260;4.728;2022-07-29T10:04:58;2.72;;;0.88;;
7487;SDS011;3785;52.260;4.728;2022-07-29T10:08:24;2.47;;;1.10;;
7487;SDS011;3785;52.260;4.728;2022-07-29T10:12:01;2.28;;;1.25;;
7487;SDS011;3785;52.260;4.728;2022-07-29T10:15:30;1.65;;;1.00;;
7487;SDS011;3785;52.260;4.728;2022-07-29T10:19:00;2.10;;;1.13;;
7487;SDS011;3785;52.260;4.728;2022-07-29T10:22:21;1.73;;;1.02;;
7487;SDS011;3785;52.260;4.728;2022-07-29T10:25:42;2.45;;;1.23;;
7487;SDS011;3785;52.260;4.728;2022-07-29T10:29:02;2.28;;;0.90;;
7487;SDS011;3785;52.260;4.728;2022-07-29T10:32:27;3.30;;;1.00;;
7487;SDS011;3785;52.260;4.728;2022-07-29T10:43:49;2.65;;;1.10;;
7487;SDS011;3785;52.260;4.728;2022-07-29T10:47:19;2.20;;;1.23;;
7487;SDS011;3785;52.260;4.728;2022-07-29T10:50:59;2.83;;;1.05;;
7487;SDS011;3785;52.260;4.728;2022-07-29T11:01:36;2.55;;;1.20;;
7487;SDS011;3785;52.260;4.728;2022-07-29T11:08:18;2.20;;;1.00;;
7487;SDS011;3785;52.260;4.728;2022-07-29T11:11:41;2.28;;;1.35;;
7487;SDS011;3785;52.260;4.728;2022-07-29T11:15:01;4.75;;;1.63;;
7487;SDS011;3785;52.260;4.728;2022-07-29T11:18:23;2.10;;;1.27;;
7487;SDS011;3785;52.260;4.728;2022-07-29T11:21:44;2.95;;;1.20;;
7487;SDS011;3785;52.260;4.728;2022-07-29T11:25:16;2.05;;;1.33;;
7487;SDS011;3785;52.260;4.728;2022-07-29T11:28:39;4.93;;;1.80;;
7487;SDS011;3785;52.260;4.728;2022-07-29T11:32:18;3.70;;;1.20;;
7487;SDS011;3785;52.260;4.728;2022-07-29T11:35:42;2.72;;;1.30;;
7487;SDS011;3785;52.260;4.728;2022-07-29T11:40:07;2.70;;;1.38;;
7487;SDS011;3785;52.260;4.728;2022-07-29T11:42:47;2.67;;;1.15;;
7487;SDS011;3785;52.260;4.728;2022-07-29T11:46:08;2.83;;;1.30;;
7487;SDS011;3785;52.260;4.728;2022-07-29T11:49:29;3.50;;;1.95;;
7487;SDS011;3785;52.260;4.728;2022-07-29T11:52:50;3.75;;;1.52;;
7487;SDS011;3785;52.260;4.728;2022-07-29T11:56:10;2.97;;;1.50;;
7487;SDS011;3785;52.260;4.728;2022-07-29T11:59:38;2.53;;;1.33;;
7487;SDS011;3785;52.260;4.728;2022-07-29T12:03:02;3.10;;;1.67;;
7487;SDS011;3785;52.260;4.728;2022-07-29T12:06:24;2.28;;;1.60;;
7487;SDS011;3785;52.260;4.728;2022-07-29T12:09:51;2.75;;;1.63;;
7487;SDS011;3785;52.260;4.728;2022-07-29T12:13:13;4.47;;;1.67;;
7487;SDS011;3785;52.260;4.728;2022-07-29T12:16:35;2.60;;;1.70;;
7487;SDS011;3785;52.260;4.728;2022-07-29T12:19:57;3.30;;;1.88;;
7487;SDS011;3785;52.260;4.728;2022-07-29T12:23:19;1.70;;;1.13;;
7487;SDS011;3785;52.260;4.728;2022-07-29T12:26:52;2.10;;;1.33;;
7487;SDS011;3785;52.260;4.728;2022-07-29T12:30:14;2.70;;;1.80;;
7487;SDS011;3785;52.260;4.728;2022-07-29T12:33:36;3.47;;;1.77;;
7487;SDS011;3785;52.260;4.728;2022-07-29T12:36:57;3.03;;;1.80;;
7487;SDS011;3785;52.260;4.728;2022-07-29T12:40:18;2.33;;;1.40;;
7487;SDS011;3785;52.260;4.728;2022-07-29T12:43:45;3.20;;;1.80;;
7487;SDS011;3785;52.260;4.728;2022-07-29T12:47:12;3.78;;;1.67;;
7487;SDS011;3785;52.260;4.728;2022-07-29T12:50:33;3.17;;;1.33;;
7487;SDS011;3785;52.260;4.728;2022-07-29T12:54:12;2.20;;;1.60;;
7487;SDS011;3785;52.260;4.728;2022-07-29T12:57:44;3.05;;;1.60;;
7487;SDS011;3785;52.260;4.728;2022-07-29T13:01:14;3.15;;;1.52;;
7487;SDS011;3785;52.260;4.728;2022-07-29T13:04:37;2.53;;;1.42;;
7487;SDS011;3785;52.260;4.728;2022-07-29T13:08:09;5.68;;;1.90;;
7487;SDS011;3785;52.260;4.728;2022-07-29T13:11:34;2.50;;;1.65;;
7487;SDS011;3785;52.260;4.728;2022-07-29T13:14:58;2.38;;;1.55;;
7487;SDS011;3785;52.260;4.728;2022-07-29T13:18:31;1.95;;;1.35;;
7487;SDS011;3785;52.260;4.728;2022-07-29T13:21:53;2.58;;;1.20;;
7487;SDS011;3785;52.260;4.728;2022-07-29T13:25:14;2.42;;;1.05;;
7487;SDS011;3785;52.260;4.728;2022-07-29T13:28:34;2.85;;;1.20;;
7487;SDS011;3785;52.260;4.728;2022-07-29T13:31:55;2.90;;;1.45;;
7487;SDS011;3785;52.260;4.728;2022-07-29T13:35:16;2.53;;;0.90;;
7487;SDS011;3785;52.260;4.728;2022-07-29T13:38:36;1.90;;;0.80;;
7487;SDS011;3785;52.260;4.728;2022-07-29T13:41:57;4.40;;;1.17;;
7487;SDS011;3785;52.260;4.728;2022-07-29T13:45:18;1.50;;;0.77;;
7487;SDS011;3785;52.260;4.728;2022-07-29T13:48:38;2.28;;;0.80;;
7487;SDS011;3785;52.260;4.728;2022-07-29T13:51:59;3.72;;;0.80;;
7487;SDS011;3785;52.260;4.728;2022-07-29T13:55:19;1.20;;;0.63;;
7487;SDS011;3785;52.260;4.728;2022-07-29T13:58:40;2.10;;;1.00;;
7487;SDS011;3785;52.260;4.728;2022-07-29T14:02:01;1.77;;;0.70;;
7487;SDS011;3785;52.260;4.728;2022-07-29T14:05:22;2.08;;;1.35;;
7487;SDS011;3785;52.260;4.728;2022-07-29T14:08:42;1.33;;;0.85;;
7487;SDS011;3785;52.260;4.728;2022-07-29T14:12:03;1.33;;;0.73;;
7487;SDS011;3785;52.260;4.728;2022-07-29T14:15:24;1.33;;;0.70;;
7487;SDS011;3785;52.260;4.728;2022-07-29T14:18:44;1.67;;;0.75;;
7487;SDS011;3785;52.260;4.728;2022-07-29T14:22:05;2.42;;;1.00;;
7487;SDS011;3785;52.260;4.728;2022-07-29T14:25:27;1.42;;;0.80;;
7487;SDS011;3785;52.260;4.728;2022-07-29T14:28:48;2.58;;;0.82;;
7487;SDS011;3785;52.260;4.728;2022-07-29T14:32:09;1.65;;;0.93;;
7487;SDS011;3785;52.260;4.728;2022-07-29T14:35:30;1.52;;;0.82;;
7487;SDS011;3785;52.260;4.728;2022-07-29T14:38:50;1.75;;;0.80;;
7487;SDS011;3785;52.260;4.728;2022-07-29T14:42:11;2.33;;;0.80;;
7487;SDS011;3785;52.260;4.728;2022-07-29T14:45:32;1.83;;;0.80;;
7487;SDS011;3785;52.260;4.728;2022-07-29T14:48:53;2.70;;;0.73;;
7487;SDS011;3785;52.260;4.728;2022-07-29T14:52:14;1.50;;;0.60;;
7487;SDS011;3785;52.260;4.728;2022-07-29T14:55:34;2.17;;;0.82;;
7487;SDS011;3785;52.260;4.728;2022-07-29T14:58:58;2.00;;;0.80;;
7487;SDS011;3785;52.260;4.728;2022-07-29T15:02:24;1.50;;;0.70;;
7487;SDS011;3785;52.260;4.728;2022-07-29T15:05:44;2.40;;;0.80;;
7487;SDS011;3785;52.260;4.728;2022-07-29T15:09:05;2.33;;;0.93;;
7487;SDS011;3785;52.260;4.728;2022-07-29T15:12:25;3.03;;;1.17;;
7487;SDS011;3785;52.260;4.728;2022-07-29T15:15:46;2.00;;;0.88;;
7487;SDS011;3785;52.260;4.728;2022-07-29T15:19:06;2.28;;;1.08;;
7487;SDS011;3785;52.260;4.728;2022-07-29T15:22:27;1.75;;;0.85;;
7487;SDS011;3785;52.260;4.728;2022-07-29T15:25:48;2.10;;;0.70;;
7487;SDS011;3785;52.260;4.728;2022-07-29T15:29:09;1.45;;;0.60;;
7487;SDS011;3785;52.260;4.728;2022-07-29T15:32:29;1.75;;;0.60;;
7487;SDS011;3785;52.260;4.728;2022-07-29T15:35:50;1.92;;;0.90;;
7487;SDS011;3785;52.260;4.728;2022-07-29T15:39:10;4.10;;;0.85;;
7487;SDS011;3785;52.260;4.728;2022-07-29T15:42:31;2.03;;;0.70;;
7487;SDS011;3785;52.260;4.728;2022-07-29T15:45:52;2.15;;;0.95;;
7487;SDS011;3785;52.260;4.728;2022-07-29T15:49:35;2.83;;;0.80;;
7487;SDS011;3785;52.260;4.728;2022-07-29T15:52:57;3.05;;;0.90;;
7487;SDS011;3785;52.260;4.728;2022-07-29T15:56:17;2.13;;;0.88;;
7487;SDS011;3785;52.260;4.728;2022-07-29T15:59:38;2.28;;;0.80;;
7487;SDS011;3785;52.260;4.728;2022-07-29T16:02:58;2.17;;;0.80;;
7487;SDS011;3785;52.260;4.728;2022-07-29T16:06:19;2.20;;;0.95;;
7487;SDS011;3785;52.260;4.728;2022-07-29T16:09:40;2.50;;;0.90;;
7487;SDS011;3785;52.260;4.728;2022-07-29T16:13:01;2.03;;;0.82;;
7487;SDS011;3785;52.260;4.728;2022-07-29T16:16:22;1.95;;;0.80;;
7487;SDS011;3785;52.260;4.728;2022-07-29T16:19:42;2.40;;;1.33;;
7487;SDS011;3785;52.260;4.728;2022-07-29T16:23:03;3.05;;;0.98;;
7487;SDS011;3785;52.260;4.728;2022-07-29T16:26:23;2.83;;;0.70;;
7487;SDS011;3785;52.260;4.728;2022-07-29T16:29:44;2.35;;;1.05;;
7487;SDS011;3785;52.260;4.728;2022-07-29T16:33:06;2.97;;;0.82;;
7487;SDS011;3785;52.260;4.728;2022-07-29T16:36:27;2.35;;;1.10;;
7487;SDS011;3785;52.260;4.728;2022-07-29T16:39:47;1.80;;;0.90;;
7487;SDS011;3785;52.260;4.728;2022-07-29T16:43:08;2.20;;;1.05;;
7487;SDS011;3785;52.260;4.728;2022-07-29T16:46:29;2.22;;;0.82;;
7487;SDS011;3785;52.260;4.728;2022-07-29T16:49:49;1.42;;;0.57;;
7487;SDS011;3785;52.260;4.728;2022-07-29T16:53:10;3.08;;;1.00;;
7487;SDS011;3785;52.260;4.728;2022-07-29T16:56:30;2.58;;;0.82;;
7487;SDS011;3785;52.260;4.728;2022-07-29T16:59:51;2.65;;;0.82;;
7487;SDS011;3785;52.260;4.728;2022-07-29T17:03:11;2.78;;;1.00;;
7487;SDS011;3785;52.260;4.728;2022-07-29T17:06:32;2.97;;;0.90;;
7487;SDS011;3785;52.260;4.728;2022-07-29T17:09:57;3.03;;;0.98;;
7487;SDS011;3785;52.260;4.728;2022-07-29T17:13:18;2.40;;;0.90;;
7487;SDS011;3785;52.260;4.728;2022-07-29T17:16:38;2.40;;;1.10;;
7487;SDS011;3785;52.260;4.728;2022-07-29T17:19:59;3.78;;;1.08;;
7487;SDS011;3785;52.260;4.728;2022-07-29T17:23:19;2.30;;;0.90;;
7487;SDS011;3785;52.260;4.728;2022-07-29T17:26:40;2.30;;;0.82;;
7487;SDS011;3785;52.260;4.728;2022-07-29T17:30:03;3.03;;;1.08;;
7487;SDS011;3785;52.260;4.728;2022-07-29T17:33:24;4.13;;;1.42;;
7487;SDS011;3785;52.260;4.728;2022-07-29T17:36:45;5.10;;;1.20;;
7487;SDS011;3785;52.260;4.728;2022-07-29T17:40:06;3.83;;;1.27;;
7487;SDS011;3785;52.260;4.728;2022-07-29T17:43:26;2.65;;;1.05;;
7487;SDS011;3785;52.260;4.728;2022-07-29T17:46:47;2.42;;;1.00;;
7487;SDS011;3785;52.260;4.728;2022-07-29T17:50:07;3.88;;;1.33;;
7487;SDS011;3785;52.260;4.728;2022-07-29T17:53:28;2.20;;;0.82;;
7487;SDS011;3785;52.260;4.728;2022-07-29T17:56:49;3.25;;;1.38;;
7487;SDS011;3785;52.260;4.728;2022-07-29T18:00:10;4.00;;;1.70;;
7487;SDS011;3785;52.260;4.728;2022-07-29T18:03:31;2.58;;;1.20;;
7487;SDS011;3785;52.260;4.728;2022-07-29T18:06:52;4.43;;;1.15;;
7487;SDS011;3785;52.260;4.728;2022-07-29T18:10:12;3.58;;;1.15;;
7487;SDS011;3785;52.260;4.728;2022-07-29T18:13:33;2.17;;;1.02;;
7487;SDS011;3785;52.260;4.728;2022-07-29T18:16:53;3.83;;;1.00;;
7487;SDS011;3785;52.260;4.728;2022-07-29T18:20:14;4.38;;;1.20;;
7487;SDS011;3785;52.260;4.728;2022-07-29T18:23:35;4.03;;;1.10;;
7487;SDS011;3785;52.260;4.728;2022-07-29T18:26:55;2.45;;;1.17;;
7487;SDS011;3785;52.260;4.728;2022-07-29T18:30:16;4.00;;;1.10;;
7487;SDS011;3785;52.260;4.728;2022-07-29T18:33:37;4.15;;;1.10;;
7487;SDS011;3785;52.260;4.728;2022-07-29T18:36:59;3.40;;;1.10;;
7487;SDS011;3785;52.260;4.728;2022-07-29T18:40:20;3.45;;;0.80;;
7487;SDS011;3785;52.260;4.728;2022-07-29T18:43:42;2.35;;;1.00;;
7487;SDS011;3785;52.260;4.728;2022-07-29T18:47:04;3.60;;;1.10;;
7487;SDS011;3785;52.260;4.728;2022-07-29T18:50:25;2.92;;;1.05;;
7487;SDS011;3785;52.260;4.728;2022-07-29T18:53:45;1.90;;;1.10;;
7487;SDS011;3785;52.260;4.728;2022-07-29T18:57:06;1.70;;;1.05;;
7487;SDS011;3785;52.260;4.728;2022-07-29T19:00:27;3.13;;;1.30;;
7487;SDS011;3785;52.260;4.728;2022-07-29T19:03:47;1.80;;;0.80;;
7487;SDS011;3785;52.260;4.728;2022-07-29T19:07:08;4.75;;;1.38;;
7487;SDS011;3785;52.260;4.728;2022-07-29T19:10:28;4.40;;;1.52;;
7487;SDS011;3785;52.260;4.728;2022-07-29T19:13:49;2.80;;;1.10;;
7487;SDS011;3785;52.260;4.728;2022-07-29T19:17:10;4.28;;;1.00;;
7487;SDS011;3785;52.260;4.728;2022-07-29T19:20:30;3.65;;;1.17;;
7487;SDS011;3785;52.260;4.728;2022-07-29T19:23:51;2.88;;;1.20;;
7487;SDS011;3785;52.260;4.728;2022-07-29T19:27:12;2.80;;;1.20;;
7487;SDS011;3785;52.260;4.728;2022-07-29T19:30:32;2.72;;;1.00;;
7487;SDS011;3785;52.260;4.728;2022-07-29T19:33:53;2.47;;;1.10;;
7487;SDS011;3785;52.260;4.728;2022-07-29T19:37:13;2.05;;;1.10;;
7487;SDS011;3785;52.260;4.728;2022-07-29T19:40:34;5.30;;;1.60;;
7487;SDS011;3785;52.260;4.728;2022-07-29T19:43:55;2.80;;;1.38;;
7487;SDS011;3785;52.260;4.728;2022-07-29T19:47:16;3.80;;;1.52;;
7487;SDS011;3785;52.260;4.728;2022-07-29T19:50:36;2.20;;;1.13;;
7487;SDS011;3785;52.260;4.728;2022-07-29T19:53:57;3.47;;;1.30;;
7487;SDS011;3785;52.260;4.728;2022-07-29T19:57:18;2.97;;;1.17;;
7487;SDS011;3785;52.260;4.728;2022-07-29T20:00:39;3.33;;;1.40;;
7487;SDS011;3785;52.260;4.728;2022-07-29T20:03:59;3.13;;;1.27;;
7487;SDS011;3785;52.260;4.728;2022-07-29T20:07:20;5.78;;;1.67;;
7487;SDS011;3785;52.260;4.728;2022-07-29T20:10:41;4.38;;;1.20;;
7487;SDS011;3785;52.260;4.728;2022-07-29T20:14:02;4.72;;;1.45;;
7487;SDS011;3785;52.260;4.728;2022-07-29T20:17:24;2.72;;;1.45;;
7487;SDS011;3785;52.260;4.728;2022-07-29T20:20:45;4.85;;;1.40;;
7487;SDS011;3785;52.260;4.728;2022-07-29T20:24:08;3.47;;;1.50;;
7487;SDS011;3785;52.260;4.728;2022-07-29T20:27:29;2.15;;;1.30;;
7487;SDS011;3785;52.260;4.728;2022-07-29T20:30:50;3.42;;;1.45;;
7487;SDS011;3785;52.260;4.728;2022-07-29T20:34:10;3.50;;;1.50;;
7487;SDS011;3785;52.260;4.728;2022-07-29T20:37:33;4.18;;;1.30;;
7487;SDS011;3785;52.260;4.728;2022-07-29T20:40:53;3.10;;;1.30;;
7487;SDS011;3785;52.260;4.728;2022-07-29T20:44:17;3.15;;;1.50;;
7487;SDS011;3785;52.260;4.728;2022-07-29T20:47:38;3.58;;;1.40;;
7487;SDS011;3785;52.260;4.728;2022-07-29T20:50:59;3.60;;;1.52;;
7487;SDS011;3785;52.260;4.728;2022-07-29T20:54:19;3.20;;;1.40;;
7487;SDS011;3785;52.260;4.728;2022-07-29T20:57:40;4.25;;;1.48;;
7487;SDS011;3785;52.260;4.728;2022-07-29T21:01:00;4.53;;;1.98;;
7487;SDS011;3785;52.260;4.728;2022-07-29T21:04:21;3.92;;;1.40;;
7487;SDS011;3785;52.260;4.728;2022-07-29T21:07:42;3.28;;;1.60;;
7487;SDS011;3785;52.260;4.728;2022-07-29T21:11:03;2.75;;;1.48;;
7487;SDS011;3785;52.260;4.728;2022-07-29T21:14:23;3.72;;;1.80;;
7487;SDS011;3785;52.260;4.728;2022-07-29T21:18:06;4.90;;;2.17;;
7487;SDS011;3785;52.260;4.728;2022-07-29T21:21:35;3.45;;;1.80;;
7487;SDS011;3785;52.260;4.728;2022-07-29T21:24:55;4.82;;;2.10;;
7487;SDS011;3785;52.260;4.728;2022-07-29T21:28:16;2.95;;;1.80;;